AirNav   Air Wisconsin Airman Trainee
 
 842 users online  

43OR Inspiration Airport
Bend, Oregon, USA

GOING TO BEND?


FAA INFORMATION EFFECTIVE 31 JANUARY 2019

Location

FAA Identifier: 43OR
Lat/Long: 44-37-21.0000N / 122-45-08.0000W
44-37.350000N / 122-45.133333W
44.6225000 / -122.7522222
(estimated)
Elevation: 3400 ft. / 1036 m (estimated)
Variation: 18E (1995)
From city: 5 miles NW of BEND, OR
Time zone: UTC -8 (UTC -7 during Daylight Saving Time)
Zip code: 97374

Airport Operations

Airport use: Private use. Permission required prior to landing
Activation date: 11/1997
Control tower: no
ARTCC: SEATTLE CENTER
FSS: MC MINNVILLE FLIGHT SERVICE STATION
Attendance: UNATNDD
Segmented circle: no

Nearby radio navigation aids

VOR radial/distance  VOR name  Freq  Var
CVOr054/24.3CORVALLIS VOR/DME115.4018E
EUGr019/36.2EUGENE VORTAC112.9015E

 
NDB name  Hdg/Dist  Freq  Var  ID
LEWISBURG074/22.122515ELWG .-.. .-- --.

Airport Services

Runway Information

Runway 7/25

Dimensions: 1900 x 60 ft. / 579 x 18 m
Surface: turf
Operational restrictions: ARRIVALS TO THE WEST; DEPARTURES TO THE EAST.
RUNWAY 7  RUNWAY 25
Traffic pattern: leftleft
Obstructions: 20 ft. brush, 25 ft. from runway35 ft. trees, 40 ft. from runway

Airport Ownership and Management from official FAA records

Ownership: Privately-owned
Owner: PETER & MARIANNE VAN KESSEL
63136 TERRY DR
BEND, OR 97701
Phone 541-317-1239
Manager: PETER & MARIANNE VAN KESSEL
63136 TERRY DR
BEND, OR 97701
Phone 541-317-1239

Instrument Procedures

There are no published instrument procedures at 43OR.

Some nearby airports with instrument procedures:

S12 - Albany Municipal Airport (13 nm W)
KSLE - McNary Field Airport (20 nm NW)
KCVO - Corvallis Municipal Airport (24 nm W)
KEUG - Mahlon Sweet Field Airport (36 nm SW)
KUAO - Aurora State Airport (37 nm N)
 
Loc | Ops | Rwys | IFR | FBO | Links
Com | Nav | Svcs | Stats | Notes
Aerial photo
No photo
 
Sectional chart

 
Airport distance calculator
Flying to Inspiration Airport? Find the distance to fly.

From to 43OR

Sunrise and sunset
Times for 22-Feb-2019
 Local
(UTC-8)
 Zulu
(UTC)
Morning civil twilight06:3214:32
Sunrise07:0115:01
Sunset17:4801:48
Evening civil twilight18:1802:18

Current date and time
Zulu (UTC)  23-Feb-2019 01:55:02
Local (UTC-8)  22-Feb-2019 17:55:02
 
METAR
KSLE 
20nm NW 
230056Z 18014G21KT 10SM -RA OVC030 07/01 A3002 RMK AO2 RAB45 SLP165 P0000 T00720006
KCVO 
23nm W 
230056Z AUTO 19009KT 10SM OVC029 07/03 A3006 RMK AO2 SLP181 T00720033
KEUG 
35nm SW 
230054Z 17011KT 10SM FEW035 BKN050 OVC095 08/01 A3008 RMK AO2 SLP188 T00780006
KUAO 
38nm N 
230053Z 19012G20KT 10SM -RA OVC029 06/02 A3001 RMK AO2 PK WND 17028/2356 RAB2355 SLP164 VIRGA N P0000 T00610017
KMMV 
38nm NW 
230137Z AUTO 21006KT 5SM -RA BR FEW019 BKN026 OVC031 06/04 A3003 RMK AO2 P0009 T00560039
TAF
KSLE 
20nm NW 
222208Z 2222/2318 18013G20KT P6SM -RA SCT025 OVC045 FM230030 20010KT 6SM -RA BKN025 OVC040 FM230200 19007KT 5SM -RA BKN015 OVC040 FM230500 19005KT P6SM VCSH SCT025 BKN040
NOTAMs
Click for the latest NOTAMs
NOTAMs are issued by the DoD/FAA and will open in a separate window not controlled by AirNav.

 

 
 

Would you like to see your business listed on this page?

 If your business provides an interesting product or service to pilots, flight crews, aircraft, or users of the Inspiration Airport, you should consider listing it here.  To start the listing process, click on the button below
 
Add a business
 

Other Pages about Inspiration Airport

Update a link
 
Copyright © AirNav, LLC. All rights reserved. Privacy Policy  Contact